Time;durP1;ratioP1;P1;durP2;ratioP2;P2;SDS_P1;SDS_P2;PMS_P1;PMS_P2;Temp;Humidity;BMP_temperature;BMP_pressure;BME280_temperature;BME280_humidity;BME280_pressure;Samples;Min_cycle;Max_cycle;Signal;HPM_P1;HPM_P2
2022/06/04 00:00:26;;;;;;;8.93;6.35;;;12.40;99.90;;;;;;4898283;29;20044;-82
2022/06/04 00:02:52;;;;;;;8.63;5.95;;;12.40;99.90;;;;;;4894700;29;20043;-82
2022/06/04 00:05:27;;;;;;;11.00;6.28;;;12.30;99.90;;;;;;4877111;29;20044;-82
2022/06/04 00:07:54;;;;;;;9.25;6.38;;;12.30;99.90;;;;;;4912136;29;20084;-82
2022/06/04 00:15:52;;;;;;;11.77;6.35;;;12.20;99.90;;;;;;4897379;29;20088;-82
2022/06/04 00:18:19;;;;;;;11.18;6.05;;;12.20;99.90;;;;;;4882821;29;20036;-82
2022/06/04 00:20:45;;;;;;;11.02;6.43;;;12.10;99.90;;;;;;4878066;29;20067;-82
2022/06/04 00:23:12;;;;;;;9.98;6.13;;;12.10;99.90;;;;;;4888334;29;20044;-82
2022/06/04 00:25:40;;;;;;;11.38;6.30;;;12.10;99.90;;;;;;4888906;29;20126;-82
2022/06/04 00:28:08;;;;;;;9.80;6.20;;;12.10;99.90;;;;;;4895415;29;20059;-83
2022/06/04 00:30:34;;;;;;;9.32;6.28;;;12.10;99.90;;;;;;4887505;29;20210;-82
2022/06/04 00:33:00;;;;;;;10.40;5.85;;;12.10;99.90;;;;;;4901721;29;20096;-82
2022/06/04 00:35:26;;;;;;;12.88;6.45;;;12.10;99.90;;;;;;4885709;29;20485;-82
2022/06/04 00:37:52;;;;;;;8.93;5.90;;;12.10;99.90;;;;;;4888136;29;20086;-82
2022/06/04 00:40:48;;;;;;;12.25;6.13;;;12.00;99.90;;;;;;4893283;29;20040;-81
2022/06/04 00:43:14;;;;;;;11.77;6.10;;;12.10;99.90;;;;;;4885292;29;20044;-82
2022/06/04 00:46:17;;;;;;;10.13;6.28;;;12.00;99.90;;;;;;4907887;29;20063;-82
2022/06/04 00:48:43;;;;;;;8.50;5.97;;;13.40;99.90;;;;;;4889436;29;20051;-82
2022/06/04 00:51:09;;;;;;;14.55;6.22;;;12.30;99.90;;;;;;4905064;29;20044;-81
2022/06/04 00:53:36;;;;;;;9.02;5.75;;;11.90;99.90;;;;;;4885029;29;20052;-82
2022/06/04 00:56:12;;;;;;;10.02;5.82;;;12.00;99.90;;;;;;4881541;29;20052;-82
2022/06/04 00:58:53;;;;;;;13.07;6.28;;;12.00;99.90;;;;;;4903023;29;20036;-82
2022/06/04 01:01:26;;;;;;;9.95;5.90;;;12.00;99.90;;;;;;4898964;29;20111;-82
2022/06/04 01:04:07;;;;;;;8.90;6.35;;;12.00;99.90;;;;;;4902705;29;20036;-82
2022/06/04 01:06:48;;;;;;;11.55;6.18;;;11.90;99.90;;;;;;4887162;29;20052;-82
2022/06/04 01:09:49;;;;;;;8.25;6.50;;;11.90;99.90;;;;;;4902342;29;20044;-82
2022/06/04 01:12:25;;;;;;;15.02;6.20;;;11.80;99.90;;;;;;4888059;29;20048;-82
2022/06/04 01:15:19;;;;;;;12.32;7.05;;;11.80;99.90;;;;;;4884920;29;20052;-82
2022/06/04 01:18:24;;;;;;;14.95;6.38;;;11.80;99.90;;;;;;4902112;29;20107;-82
2022/06/04 01:20:59;;;;;;;13.32;6.55;;;11.80;99.90;;;;;;4884707;29;20067;-82
2022/06/04 01:23:50;;;;;;;11.10;6.55;;;11.80;99.90;;;;;;4901664;29;20107;-82
2022/06/04 01:26:40;;;;;;;11.43;7.15;;;11.70;99.90;;;;;;4878521;29;20412;-82
2022/06/04 01:29:13;;;;;;;14.10;6.93;;;11.70;99.90;;;;;;4874832;29;20075;-82
2022/06/04 01:32:00;;;;;;;12.30;6.30;;;11.70;99.90;;;;;;4901941;29;20044;-82
2022/06/04 01:34:34;;;;;;;9.48;6.88;;;11.70;99.90;;;;;;4903281;29;20047;-82
2022/06/04 01:37:08;;;;;;;11.27;7.15;;;11.70;99.90;;;;;;4890106;29;20091;-82
2022/06/04 01:42:27;;;;;;;13.32;6.68;;;11.60;99.90;;;;;;4905388;29;20044;-82
2022/06/04 01:44:55;;;;;;;10.55;6.57;;;11.60;99.90;;;;;;4892349;29;20036;-82
2022/06/04 01:47:22;;;;;;;9.93;6.47;;;11.60;99.90;;;;;;4903816;29;20054;-82
2022/06/04 01:49:52;;;;;;;12.07;6.78;;;11.60;99.90;;;;;;4908394;29;20048;-82
2022/06/04 01:52:26;;;;;;;11.27;6.53;;;11.60;99.90;;;;;;4891444;29;20051;-82
2022/06/04 01:55:10;;;;;;;12.63;6.85;;;11.50;99.90;;;;;;4892491;29;20041;-82
2022/06/04 01:57:51;;;;;;;10.68;6.50;;;11.50;99.90;;;;;;4884414;29;20048;-82
2022/06/04 02:00:25;;;;;;;13.15;7.35;;;11.50;99.90;;;;;;4921001;29;20597;-82
2022/06/04 02:03:15;;;;;;;12.98;6.57;;;11.50;99.90;;;;;;4915442;29;20055;-82
2022/06/04 02:05:46;;;;;;;12.23;6.97;;;11.40;99.90;;;;;;4902923;29;20048;-82
2022/06/04 02:08:15;;;;;;;10.23;6.63;;;11.40;99.90;;;;;;4911304;29;20087;-81
2022/06/04 02:10:55;;;;;;;14.00;6.90;;;11.40;99.90;;;;;;4904238;29;20047;-82
2022/06/04 02:13:21;;;;;;;10.70;6.72;;;11.40;99.90;;;;;;4908508;29;20051;-81
2022/06/04 02:16:00;;;;;;;13.85;7.40;;;11.40;99.90;;;;;;4907639;29;20039;-81
2022/06/04 02:18:25;;;;;;;15.40;7.18;;;11.40;99.90;;;;;;4911030;29;20088;-82
2022/06/04 02:20:51;;;;;;;11.70;6.90;;;11.40;99.90;;;;;;4885918;29;20039;-82
2022/06/04 02:23:17;;;;;;;14.02;6.43;;;11.40;99.90;;;;;;4888855;29;20052;-82
2022/06/04 02:25:43;;;;;;;20.13;7.60;;;11.40;99.90;;;;;;4893411;29;20036;-81
2022/06/04 02:28:10;;;;;;;13.95;7.63;;;11.30;99.90;;;;;;4912214;29;20442;-82
2022/06/04 02:31:13;;;;;;;14.10;7.40;;;11.30;99.90;;;;;;4887321;29;20086;-81
2022/06/04 02:33:56;;;;;;;12.25;6.90;;;11.30;99.90;;;;;;4894398;29;20496;-82
2022/06/04 02:36:46;;;;;;;13.43;7.68;;;11.20;99.90;;;;;;4900016;29;20043;-82
2022/06/04 02:39:20;;;;;;;14.98;7.35;;;11.20;99.90;;;;;;4898663;29;20041;-82
2022/06/04 02:41:52;;;;;;;16.42;7.97;;;11.10;99.90;;;;;;4879935;29;20130;-82
2022/06/04 02:44:24;;;;;;;13.30;7.32;;;11.20;99.90;;;;;;4909721;29;20044;-81
2022/06/04 02:47:01;;;;;;;15.70;8.30;;;11.10;99.90;;;;;;4885568;29;20494;-82
2022/06/04 02:49:53;;;;;;;11.90;8.13;;;11.10;99.90;;;;;;4889911;29;20044;-81
2022/06/04 02:52:20;;;;;;;14.98;7.60;;;11.10;99.90;;;;;;4899874;29;20092;-82
2022/06/04 02:54:52;;;;;;;16.70;8.90;;;11.00;99.90;;;;;;4872489;29;20040;-82
2022/06/04 02:57:18;;;;;;;16.48;8.95;;;11.00;99.90;;;;;;4916763;29;20047;-82
2022/06/04 02:59:46;;;;;;;14.23;8.70;;;11.00;99.90;;;;;;4901650;29;20040;-82
2022/06/04 03:02:15;;;;;;;16.55;9.00;;;11.00;99.90;;;;;;4894008;29;20048;-82
2022/06/04 03:04:43;;;;;;;12.07;9.23;;;10.90;99.90;;;;;;4884808;29;20492;-82
2022/06/04 03:07:10;;;;;;;17.42;8.75;;;10.90;99.90;;;;;;4879318;29;20047;-82
2022/06/04 03:09:38;;;;;;;15.82;9.35;;;11.00;99.90;;;;;;4900504;29;20083;-82
2022/06/04 03:12:04;;;;;;;13.60;8.93;;;10.90;99.90;;;;;;4897646;29;20390;-82
2022/06/04 03:14:30;;;;;;;20.73;10.00;;;10.90;99.90;;;;;;4896374;29;20359;-82
2022/06/04 03:16:56;;;;;;;18.98;9.20;;;10.80;99.90;;;;;;4875755;29;20051;-82
2022/06/04 03:19:21;;;;;;;17.63;9.93;;;10.80;99.90;;;;;;4898880;29;20036;-82
2022/06/04 03:21:47;;;;;;;18.45;9.82;;;10.70;99.90;;;;;;4909394;29;20564;-82
2022/06/04 03:24:14;;;;;;;20.95;9.52;;;10.80;99.90;;;;;;4866429;29;20173;-82
2022/06/04 03:26:40;;;;;;;20.65;9.93;;;10.80;99.90;;;;;;4896650;29;20127;-81
2022/06/04 03:29:06;;;;;;;14.73;9.90;;;10.80;99.90;;;;;;4894564;29;20045;-81
2022/06/04 03:31:33;;;;;;;16.35;10.20;;;10.80;99.90;;;;;;4905427;29;20516;-81
2022/06/04 03:33:59;;;;;;;16.25;9.30;;;10.80;99.90;;;;;;4900395;29;20043;-82
2022/06/04 03:36:25;;;;;;;19.70;11.10;;;10.80;99.90;;;;;;4915876;29;20035;-82
2022/06/04 03:38:55;;;;;;;20.75;11.32;;;10.80;99.90;;;;;;4907373;29;20048;-82
2022/06/04 03:41:21;;;;;;;16.33;10.75;;;10.60;99.90;;;;;;4882369;29;20055;-81
2022/06/04 03:43:51;;;;;;;20.55;11.18;;;10.70;99.90;;;;;;4890194;29;20044;-82
2022/06/04 03:46:19;;;;;;;20.10;11.02;;;10.70;99.90;;;;;;4908461;29;20409;-82
2022/06/04 03:48:45;;;;;;;20.95;11.05;;;10.70;99.90;;;;;;4901863;29;20458;-82
2022/06/04 03:51:11;;;;;;;17.48;10.55;;;10.70;99.90;;;;;;4890353;29;20130;-82
2022/06/04 03:53:36;;;;;;;15.95;10.45;;;10.70;99.90;;;;;;4901227;29;20414;-82
2022/06/04 03:56:02;;;;;;;25.05;11.55;;;10.70;99.90;;;;;;4875921;29;20580;-82
2022/06/04 03:58:30;;;;;;;19.25;10.85;;;10.70;99.90;;;;;;4873337;29;20040;-82
2022/06/04 04:00:57;;;;;;;19.98;10.25;;;10.60;99.90;;;;;;4888143;29;20045;-82
2022/06/04 04:03:24;;;;;;;22.35;10.52;;;10.60;99.90;;;;;;4887369;29;20048;-82
2022/06/04 04:05:55;;;;;;;19.45;11.75;;;10.60;99.90;;;;;;4863639;29;20413;-82
2022/06/04 04:08:24;;;;;;;19.05;10.65;;;10.70;99.90;;;;;;4872522;29;20052;-82
2022/06/04 04:10:50;;;;;;;20.95;10.55;;;10.70;99.90;;;;;;4879389;29;20049;-82
2022/06/04 04:13:18;;;;;;;21.92;10.75;;;10.60;99.90;;;;;;4869915;29;20041;-81
2022/06/04 04:15:43;;;;;;;18.23;10.35;;;11.00;99.90;;;;;;4905093;29;20049;-82
2022/06/04 04:18:10;;;;;;;15.20;9.93;;;10.70;99.90;;;;;;4871754;29;20052;-82
2022/06/04 04:20:39;;;;;;;16.08;10.00;;;10.70;99.90;;;;;;4885127;29;20052;-82
2022/06/04 04:23:06;;;;;;;17.27;9.60;;;10.80;99.90;;;;;;4892294;29;20123;-82
2022/06/04 04:25:34;;;;;;;17.88;9.50;;;10.80;99.90;;;;;;4872782;29;20084;-81
2022/06/04 04:28:00;;;;;;;17.65;9.40;;;10.80;99.90;;;;;;4867599;29;20037;-81
2022/06/04 04:30:29;;;;;;;16.13;9.23;;;10.80;99.90;;;;;;4841744;29;20611;-82
2022/06/04 04:32:56;;;;;;;16.08;8.85;;;10.90;99.90;;;;;;4880255;29;20064;-82
2022/06/04 04:35:25;;;;;;;17.83;9.25;;;10.90;99.90;;;;;;4870794;29;20044;-82
2022/06/04 04:37:52;;;;;;;15.63;9.77;;;11.00;99.90;;;;;;4868547;29;20045;-82
2022/06/04 04:40:20;;;;;;;16.08;8.35;;;10.90;99.90;;;;;;4891537;29;20076;-82
2022/06/04 04:42:48;;;;;;;14.88;8.02;;;11.00;99.90;;;;;;4895270;29;20040;-82
2022/06/04 04:45:15;;;;;;;16.30;8.07;;;11.00;99.90;;;;;;4904727;29;20084;-82
2022/06/04 04:47:43;;;;;;;15.32;8.23;;;11.10;99.90;;;;;;4885774;29;20037;-82
2022/06/04 04:50:17;;;;;;;13.65;7.32;;;11.20;99.90;;;;;;4898479;29;20082;-82
2022/06/04 04:52:44;;;;;;;13.77;7.88;;;11.20;99.90;;;;;;4885303;29;20059;-82
2022/06/04 04:55:10;;;;;;;13.55;7.35;;;11.30;99.90;;;;;;4871520;29;20056;-82
2022/06/04 04:57:36;;;;;;;16.27;6.85;;;11.30;99.90;;;;;;4869729;29;20367;-82
2022/06/04 05:00:05;;;;;;;11.80;7.60;;;11.30;99.90;;;;;;4876907;29;20136;-82
2022/06/04 05:02:31;;;;;;;12.15;6.82;;;11.40;99.90;;;;;;4874934;29;20039;-82
2022/06/04 05:04:56;;;;;;;14.43;6.35;;;11.40;99.90;;;;;;4899929;29;20118;-82
2022/06/04 05:07:22;;;;;;;9.55;6.25;;;11.40;99.90;;;;;;4880458;29;20047;-82
2022/06/04 05:09:48;;;;;;;10.32;7.05;;;11.50;99.90;;;;;;4898217;29;20041;-81
2022/06/04 05:12:13;;;;;;;12.65;6.57;;;11.50;99.90;;;;;;4864285;29;20045;-82
2022/06/04 05:14:39;;;;;;;12.25;6.45;;;11.60;99.90;;;;;;4878179;29;20041;-82
2022/06/04 05:17:05;;;;;;;11.90;6.30;;;11.70;99.90;;;;;;4852565;29;20037;-82
2022/06/04 05:19:31;;;;;;;10.60;6.78;;;11.80;99.90;;;;;;4873038;29;20048;-81
2022/06/04 05:21:57;;;;;;;11.40;6.57;;;11.80;99.90;;;;;;4886255;29;20040;-82
2022/06/04 05:24:26;;;;;;;10.40;5.97;;;12.00;99.90;;;;;;4883420;29;20047;-82
2022/06/04 05:26:53;;;;;;;10.23;5.82;;;12.00;99.90;;;;;;4886122;29;20082;-82
2022/06/04 05:29:20;;;;;;;11.32;5.75;;;12.10;99.90;;;;;;4893171;29;20048;-82
2022/06/04 05:31:46;;;;;;;14.32;6.93;;;12.10;99.90;;;;;;4893610;29;20036;-82
2022/06/04 05:34:13;;;;;;;9.63;5.53;;;12.20;99.90;;;;;;4879198;29;20098;-82
2022/06/04 05:36:39;;;;;;;10.07;5.53;;;12.20;99.90;;;;;;4865909;29;20115;-82
2022/06/04 05:39:07;;;;;;;12.43;5.97;;;12.20;99.90;;;;;;4891015;29;20041;-82
2022/06/04 05:41:33;;;;;;;7.82;5.75;;;12.30;99.90;;;;;;4880982;29;20062;-82
2022/06/04 05:43:59;;;;;;;9.70;5.72;;;12.30;99.90;;;;;;4890336;29;20040;-82
2022/06/04 05:46:25;;;;;;;11.75;6.10;;;12.30;99.90;;;;;;4851410;29;20128;-82
2022/06/04 05:48:51;;;;;;;8.23;6.00;;;12.40;99.90;;;;;;4876017;29;20045;-82
2022/06/04 05:51:20;;;;;;;12.00;5.63;;;12.50;99.90;;;;;;4885174;29;20052;-82
2022/06/04 05:53:48;;;;;;;9.20;5.40;;;12.50;99.90;;;;;;4891588;29;20053;-82
2022/06/04 05:56:19;;;;;;;7.95;4.97;;;12.50;99.90;;;;;;4905706;29;20098;-82
2022/06/04 05:58:46;;;;;;;11.18;5.55;;;12.60;99.90;;;;;;4883516;29;20057;-82
2022/06/04 06:01:13;;;;;;;10.63;5.50;;;12.70;99.90;;;;;;4873800;29;20051;-81
2022/06/04 06:03:39;;;;;;;12.88;5.43;;;12.80;99.90;;;;;;4899405;29;20044;-81
2022/06/04 06:06:09;;;;;;;10.48;5.60;;;12.80;99.90;;;;;;4873273;29;20050;-82
2022/06/04 06:08:35;;;;;;;8.40;5.20;;;12.80;99.90;;;;;;4898815;29;20524;-82
2022/06/04 06:11:06;;;;;;;8.10;5.15;;;12.80;99.90;;;;;;4898417;29;20044;-82
2022/06/04 06:13:32;;;;;;;7.53;5.43;;;12.90;99.90;;;;;;4893076;29;20051;-82
2022/06/04 06:16:06;;;;;;;7.85;4.90;;;12.90;99.90;;;;;;4889872;29;20044;-82
2022/06/04 06:18:34;;;;;;;12.48;5.75;;;13.00;99.90;;;;;;4892300;29;20037;-82
2022/06/04 06:21:10;;;;;;;10.70;4.90;;;13.00;99.90;;;;;;4903921;29;20049;-82
2022/06/04 06:23:37;;;;;;;10.18;5.15;;;13.10;99.90;;;;;;4899205;29;20103;-82
2022/06/04 06:26:06;;;;;;;10.32;4.90;;;13.20;99.90;;;;;;4919034;29;20043;-82
2022/06/04 06:28:34;;;;;;;10.10;5.13;;;13.30;99.90;;;;;;4897373;29;20135;-82
2022/06/04 06:30:59;;;;;;;7.72;5.05;;;13.40;99.90;;;;;;4899799;29;20393;-82
2022/06/04 06:33:25;;;;;;;8.68;4.45;;;13.50;99.90;;;;;;4885768;29;20047;-82
2022/06/04 06:35:59;;;;;;;9.88;4.68;;;13.70;99.90;;;;;;4868434;29;20075;-82
2022/06/04 06:38:25;;;;;;;7.07;4.40;;;13.80;99.90;;;;;;4897029;29;20044;-81
2022/06/04 06:40:53;;;;;;;9.38;4.60;;;14.00;99.90;;;;;;4895039;29;20051;-82
2022/06/04 06:43:20;;;;;;;8.25;4.32;;;14.20;99.90;;;;;;4887448;29;20048;-82
2022/06/04 06:45:45;;;;;;;7.72;4.38;;;14.40;99.90;;;;;;4892318;29;20059;-82
2022/06/04 06:48:12;;;;;;;5.90;4.07;;;14.60;99.90;;;;;;4867587;29;20400;-82
2022/06/04 06:50:38;;;;;;;6.30;3.95;;;14.70;99.90;;;;;;4898226;29;20099;-83
2022/06/04 06:53:04;;;;;;;9.63;4.47;;;14.90;99.90;;;;;;4895390;29;20132;-82
2022/06/04 06:55:30;;;;;;;6.70;4.20;;;15.00;99.90;;;;;;4892343;29;20050;-82
2022/06/04 06:57:56;;;;;;;6.93;4.43;;;15.10;99.90;;;;;;4873421;29;20037;-82
2022/06/04 07:00:22;;;;;;;8.20;4.72;;;15.10;99.90;;;;;;4879331;29;20043;-82
2022/06/04 07:02:48;;;;;;;7.07;4.40;;;15.10;99.90;;;;;;4875980;29;20116;-82
2022/06/04 07:05:14;;;;;;;5.00;4.20;;;15.10;99.90;;;;;;4876966;29;20049;-82
2022/06/04 07:07:41;;;;;;;7.43;4.15;;;15.10;99.90;;;;;;4880225;29;20036;-82
2022/06/04 07:10:07;;;;;;;9.15;4.43;;;15.30;99.90;;;;;;4882083;29;20127;-82
2022/06/04 07:12:33;;;;;;;7.45;4.50;;;15.30;99.90;;;;;;4884469;29;20036;-82
2022/06/04 07:14:59;;;;;;;5.82;4.20;;;15.40;99.90;;;;;;4883332;29;20126;-82
2022/06/04 07:17:25;;;;;;;8.43;4.30;;;15.50;99.90;;;;;;4884837;29;20054;-82
2022/06/04 07:19:51;;;;;;;5.70;4.07;;;15.70;99.90;;;;;;4904371;29;20052;-82
2022/06/04 07:22:16;;;;;;;6.53;4.20;;;15.80;99.90;;;;;;4905377;29;20051;-82
2022/06/04 07:24:42;;;;;;;7.05;4.18;;;15.80;99.90;;;;;;4917286;29;20068;-82
2022/06/04 07:27:09;;;;;;;6.88;3.95;;;15.90;99.90;;;;;;4902806;29;20401;-82
2022/06/04 07:29:35;;;;;;;6.43;3.90;;;16.00;99.90;;;;;;4888191;29;20049;-82
2022/06/04 07:32:02;;;;;;;7.28;4.05;;;16.20;99.90;;;;;;4889811;29;20067;-82
2022/06/04 07:34:28;;;;;;;6.40;3.40;;;16.50;99.90;;;;;;4900470;29;20515;-82
2022/06/04 07:36:53;;;;;;;7.03;4.30;;;16.80;99.90;;;;;;4884966;29;20123;-82
2022/06/04 07:39:20;;;;;;;5.13;3.58;;;17.20;99.90;;;;;;4894160;29;20048;-81
2022/06/04 07:41:52;;;;;;;4.53;3.40;;;17.50;99.90;;;;;;4865408;29;20574;-81
2022/06/04 07:44:23;;;;;;;6.05;3.70;;;17.70;99.90;;;;;;4890618;29;20040;-82
2022/06/04 07:46:49;;;;;;;6.32;3.50;;;17.80;99.90;;;;;;4885666;29;20041;-81
2022/06/04 07:49:15;;;;;;;5.28;3.70;;;18.00;99.90;;;;;;4880957;29;20508;-82
2022/06/04 07:51:42;;;;;;;6.28;3.67;;;18.20;99.90;;;;;;4874249;29;20048;-82
2022/06/04 07:54:10;;;;;;;4.60;3.30;;;18.10;99.90;;;;;;4878848;29;20501;-82
2022/06/04 07:56:37;;;;;;;5.82;3.70;;;18.10;99.90;;;;;;4869701;29;20037;-82
2022/06/04 07:59:04;;;;;;;7.45;3.50;;;18.20;99.90;;;;;;4888496;29;20043;-83
2022/06/04 08:01:30;;;;;;;5.43;3.47;;;18.40;99.90;;;;;;4881399;29;20044;-82
2022/06/04 08:03:56;;;;;;;6.88;3.60;;;18.40;99.90;;;;;;4862290;29;20505;-82
2022/06/04 08:06:23;;;;;;;4.45;3.20;;;18.60;99.90;;;;;;4866453;29;20136;-82
2022/06/04 08:08:50;;;;;;;4.72;3.55;;;18.60;99.90;;;;;;4870070;29;20123;-82
2022/06/04 08:11:31;;;;;;;5.07;3.28;;;18.50;99.90;;;;;;4868876;29;20135;-82
2022/06/04 08:14:06;;;;;;;6.20;3.72;;;18.50;99.90;;;;;;4891634;29;20048;-82
2022/06/04 08:16:34;;;;;;;6.80;3.70;;;18.20;99.90;;;;;;4866249;29;20037;-82
2022/06/04 08:19:00;;;;;;;5.20;3.58;;;18.10;99.90;;;;;;4882478;29;20032;-83
2022/06/04 08:21:25;;;;;;;5.50;3.72;;;18.00;99.90;;;;;;4867382;29;20489;-82
2022/06/04 08:23:51;;;;;;;5.72;4.20;;;17.90;99.90;;;;;;4863367;29;20055;-83
2022/06/04 08:26:17;;;;;;;6.20;4.15;;;17.70;99.90;;;;;;4890145;29;20417;-82
2022/06/04 08:28:43;;;;;;;7.90;4.45;;;17.40;99.90;;;;;;4890817;29;20131;-82
2022/06/04 08:31:12;;;;;;;6.15;4.25;;;17.30;99.90;;;;;;4894244;29;20112;-82
2022/06/04 08:33:39;;;;;;;7.25;4.43;;;17.30;99.90;;;;;;4893490;29;20036;-82
2022/06/04 08:36:07;;;;;;;6.70;4.20;;;17.30;99.90;;;;;;4903787;29;20032;-82
2022/06/04 08:38:33;;;;;;;6.15;3.65;;;17.20;99.90;;;;;;4872900;29;20052;-82
2022/06/04 08:41:01;;;;;;;6.15;3.90;;;17.20;99.90;;;;;;4869753;29;20055;-82
2022/06/04 08:43:46;;;;;;;5.97;4.25;;;17.30;99.90;;;;;;4892516;29;20123;-82
2022/06/04 08:46:17;;;;;;;6.15;4.35;;;17.50;99.90;;;;;;4873766;29;20114;-82
2022/06/04 08:48:44;;;;;;;4.75;3.97;;;17.60;99.90;;;;;;4884211;29;20052;-83
2022/06/04 08:51:21;;;;;;;5.80;4.20;;;17.70;99.90;;;;;;4879448;29;20073;-82
2022/06/04 08:53:52;;;;;;;7.07;4.28;;;17.70;99.90;;;;;;4892851;29;20050;-82
2022/06/04 08:59:33;;;;;;;5.50;4.15;;;17.90;99.90;;;;;;4884093;29;20052;-82
2022/06/04 09:02:04;;;;;;;5.35;3.78;;;18.00;99.90;;;;;;4876744;29;20122;-82
2022/06/04 09:05:13;;;;;;;6.47;4.15;;;18.10;99.90;;;;;;4899222;29;20040;-83
2022/06/04 09:07:46;;;;;;;7.65;4.30;;;17.90;99.90;;;;;;4886403;29;20045;-82
2022/06/04 09:10:17;;;;;;;7.55;4.20;;;17.90;99.90;;;;;;4871761;29;20184;-83
2022/06/04 09:13:09;;;;;;;7.32;3.80;;;17.90;99.90;;;;;;4865341;29;20679;-83
2022/06/04 09:15:44;;;;;;;5.97;3.92;;;18.00;99.90;;;;;;4889187;29;20040;-82
2022/06/04 09:18:16;;;;;;;6.97;3.50;;;18.30;99.90;;;;;;4890752;29;20051;-82
2022/06/04 09:20:48;;;;;;;4.88;3.50;;;18.70;99.90;;;;;;4901480;29;20112;-82
2022/06/04 09:23:36;;;;;;;6.28;3.85;;;19.00;99.90;;;;;;4902433;29;20049;-82
2022/06/04 09:26:13;;;;;;;5.00;3.80;;;19.40;99.90;;;;;;4893437;29;20048;-82
2022/06/04 09:28:48;;;;;;;5.25;3.65;;;19.50;99.90;;;;;;4884443;29;20044;-82
2022/06/04 09:31:51;;;;;;;5.80;3.80;;;19.50;99.90;;;;;;4910027;29;20045;-82
2022/06/04 09:34:19;;;;;;;6.88;4.28;;;19.70;99.90;;;;;;4892719;29;20044;-82
2022/06/04 09:36:46;;;;;;;5.85;3.67;;;19.80;99.90;;;;;;4897505;29;20044;-82
2022/06/04 09:39:32;;;;;;;6.15;3.70;;;19.90;99.90;;;;;;4900828;29;20044;-83
2022/06/04 09:42:03;;;;;;;5.05;3.50;;;20.00;99.90;;;;;;4884998;29;20104;-82
2022/06/04 09:44:31;;;;;;;6.28;3.75;;;20.10;99.90;;;;;;4892040;29;20040;-82
2022/06/04 09:47:07;;;;;;;7.38;3.55;;;20.10;99.90;;;;;;4876919;29;20048;-82
2022/06/04 09:49:40;;;;;;;5.18;3.35;;;20.20;99.90;;;;;;4897036;29;20048;-83
2022/06/04 09:52:21;;;;;;;4.97;3.45;;;20.20;99.90;;;;;;4899527;29;20090;-83
2022/06/04 09:54:54;;;;;;;7.65;3.50;;;20.30;99.90;;;;;;4905838;29;20143;-82
2022/06/04 09:57:27;;;;;;;5.55;3.78;;;20.60;99.90;;;;;;4900186;29;20032;-82
2022/06/04 09:59:55;;;;;;;7.15;3.47;;;20.70;99.90;;;;;;4894583;29;20071;-83
2022/06/04 10:02:21;;;;;;;6.25;4.07;;;20.80;99.90;;;;;;4903261;29;20075;-82
2022/06/04 10:04:50;;;;;;;6.00;3.45;;;20.80;99.90;;;;;;4892164;29;20511;-82
2022/06/04 10:07:29;;;;;;;7.20;3.50;;;20.90;99.90;;;;;;4881170;29;20048;-82
2022/06/04 10:09:58;;;;;;;6.05;3.40;;;21.00;99.90;;;;;;4901542;29;20044;-82
2022/06/04 10:15:38;;;;;;;6.72;3.40;;;21.10;99.90;;;;;;4893564;29;20556;-82
2022/06/04 10:18:15;;;;;;;4.80;3.58;;;21.20;99.50;;;;;;4901508;29;20051;-82
2022/06/04 10:20:41;;;;;;;6.07;3.30;;;21.20;99.40;;;;;;4900889;29;20048;-82
2022/06/04 10:23:14;;;;;;;4.70;3.50;;;20.90;98.00;;;;;;4885824;29;20055;-82
2022/06/04 10:26:09;;;;;;;5.53;3.08;;;20.90;98.50;;;;;;4903246;29;20044;-82
2022/06/04 10:28:42;;;;;;;6.13;3.85;;;20.90;98.10;;;;;;4894555;29;20048;-83
2022/06/04 10:31:21;;;;;;;6.20;4.15;;;20.80;98.00;;;;;;4881253;29;20040;-82
2022/06/04 10:34:02;;;;;;;8.13;3.83;;;20.70;98.80;;;;;;4911211;29;20067;-83
2022/06/04 10:36:49;;;;;;;5.93;3.72;;;20.70;98.80;;;;;;4900360;29;20068;-83
2022/06/04 10:39:36;;;;;;;4.45;3.42;;;20.70;98.70;;;;;;4895470;29;20095;-82
2022/06/04 10:42:26;;;;;;;7.13;4.13;;;20.80;99.20;;;;;;4898337;29;20052;-82
2022/06/04 10:45:32;;;;;;;4.60;3.53;;;20.80;99.10;;;;;;4884797;29;20043;-82
2022/06/04 10:48:10;;;;;;;5.75;4.15;;;20.80;97.90;;;;;;4872601;29;20082;-82
2022/06/04 10:53:55;;;;;;;5.43;3.88;;;20.80;99.10;;;;;;4899947;29;20413;-82
2022/06/04 10:56:40;;;;;;;4.88;4.03;;;21.00;99.40;;;;;;4898613;29;20044;-82
2022/06/04 10:59:26;;;;;;;7.35;4.38;;;21.00;99.00;;;;;;4885908;29;20044;-82
2022/06/04 11:02:22;;;;;;;5.75;4.10;;;21.10;99.10;;;;;;4914946;29;20055;-82
2022/06/04 11:04:54;;;;;;;5.40;4.27;;;21.10;99.10;;;;;;4903847;29;20047;-82
2022/06/04 11:07:48;;;;;;;5.65;4.05;;;21.00;99.70;;;;;;4886023;29;20537;-82
2022/06/04 11:10:18;;;;;;;10.60;4.47;;;21.10;99.90;;;;;;4900710;29;20056;-83
2022/06/04 11:13:12;;;;;;;5.85;4.07;;;21.10;99.30;;;;;;4909015;29;20079;-83
2022/06/04 11:16:02;;;;;;;5.70;4.05;;;21.20;99.40;;;;;;4900645;29;20385;-82
2022/06/04 11:19:10;;;;;;;5.75;4.10;;;21.10;98.50;;;;;;4900673;29;20501;-82
2022/06/04 11:22:06;;;;;;;6.10;3.75;;;21.10;98.70;;;;;;4871541;29;20060;-82
2022/06/04 11:24:40;;;;;;;7.28;3.75;;;21.10;99.60;;;;;;4889389;29;20052;-82
2022/06/04 11:27:13;;;;;;;4.75;3.55;;;21.30;99.30;;;;;;4900699;29;20051;-82
2022/06/04 11:29:40;;;;;;;7.03;3.67;;;21.40;98.40;;;;;;4899516;29;20040;-82
2022/06/04 11:32:26;;;;;;;7.50;3.97;;;21.30;98.30;;;;;;4887170;29;20051;-82
2022/06/04 11:35:17;;;;;;;4.72;3.40;;;21.40;98.50;;;;;;4885850;29;20105;-82
2022/06/04 11:37:48;;;;;;;6.10;3.78;;;21.50;97.70;;;;;;4872506;29;20485;-82
2022/06/04 11:40:51;;;;;;;5.65;3.70;;;21.60;97.40;;;;;;4892923;29;20052;-82
2022/06/04 11:43:28;;;;;;;4.90;3.95;;;21.60;97.30;;;;;;4887266;29;20400;-82
2022/06/04 11:45:54;;;;;;;5.25;3.53;;;21.50;96.80;;;;;;4894850;29;20040;-82
2022/06/04 11:48:55;;;;;;;5.00;3.28;;;21.60;96.90;;;;;;4896121;29;20097;-82
2022/06/04 11:51:40;;;;;;;7.20;3.60;;;21.80;97.50;;;;;;4896614;29;20058;-82
2022/06/04 11:54:28;;;;;;;4.38;3.05;;;22.10;97.50;;;;;;4884294;29;20055;-82
2022/06/04 11:57:09;;;;;;;4.57;2.90;;;22.40;97.20;;;;;;4884355;29;20052;-82
2022/06/04 11:59:57;;;;;;;5.03;2.95;;;22.60;96.10;;;;;;4878323;29;20041;-82
2022/06/04 12:02:30;;;;;;;5.20;3.03;;;22.60;94.40;;;;;;4893570;29;20090;-82
2022/06/04 12:05:30;;;;;;;9.73;3.28;;;22.60;93.90;;;;;;4888170;29;20127;-82
2022/06/04 12:07:58;;;;;;;6.78;3.10;;;22.60;92.50;;;;;;4887685;29;20072;-82
2022/06/04 12:11:05;;;;;;;6.70;3.33;;;22.40;93.40;;;;;;4889313;29;20054;-82
2022/06/04 12:13:42;;;;;;;5.88;2.70;;;22.50;92.90;;;;;;4849252;29;20071;-82
2022/06/04 12:16:14;;;;;;;4.38;2.97;;;22.50;93.60;;;;;;4870642;29;20184;-82
2022/06/04 12:18:48;;;;;;;4.97;2.50;;;22.50;93.30;;;;;;4870659;29;20051;-82
2022/06/04 12:24:34;;;;;;;4.18;2.50;;;22.40;93.50;;;;;;4903329;29;20059;-81
2022/06/04 12:27:18;;;;;;;4.63;3.00;;;22.20;93.50;;;;;;4911321;29;20046;-83
2022/06/04 12:29:50;;;;;;;5.22;3.08;;;22.30;93.70;;;;;;4920291;29;20054;-82
2022/06/04 12:32:24;;;;;;;4.05;2.70;;;22.40;94.00;;;;;;4905246;29;20476;-82
2022/06/04 12:35:03;;;;;;;3.60;2.63;;;22.40;93.00;;;;;;4890317;29;20049;-82
2022/06/04 12:37:32;;;;;;;4.80;2.65;;;22.40;93.20;;;;;;4891849;29;20131;-82
2022/06/04 12:40:13;;;;;;;4.13;2.47;;;22.50;93.50;;;;;;4914421;29;20039;-82
2022/06/04 12:42:39;;;;;;;4.47;2.60;;;22.60;92.90;;;;;;4903829;29;20511;-82
2022/06/04 12:45:26;;;;;;;5.72;2.65;;;22.70;92.60;;;;;;4905400;29;20048;-82
2022/06/04 12:47:57;;;;;;;4.20;2.50;;;22.90;92.80;;;;;;4916447;29;20382;-83
2022/06/04 12:50:36;;;;;;;4.05;2.47;;;23.20;92.60;;;;;;4879705;29;20052;-83
2022/06/04 12:53:13;;;;;;;4.53;2.90;;;23.50;91.30;;;;;;4907817;29;20060;-83
2022/06/04 12:55:50;;;;;;;5.90;2.35;;;23.60;90.70;;;;;;4894384;29;20052;-83
2022/06/04 12:58:35;;;;;;;4.75;2.50;;;23.70;90.90;;;;;;4900071;29;20044;-83
2022/06/04 13:01:32;;;;;;;5.20;2.60;;;23.50;89.30;;;;;;4882244;29;20044;-82
2022/06/04 13:04:10;;;;;;;4.15;2.60;;;23.40;90.10;;;;;;4905206;29;20409;-83
2022/06/04 13:06:44;;;;;;;4.97;2.65;;;23.40;90.90;;;;;;4892611;29;20047;-82
2022/06/04 13:09:21;;;;;;;4.05;2.55;;;23.30;90.20;;;;;;4898964;29;20108;-82
2022/06/04 13:12:07;;;;;;;4.55;2.72;;;23.20;89.80;;;;;;4901623;29;20048;-82
2022/06/04 13:15:06;;;;;;;4.57;2.67;;;23.30;90.20;;;;;;4898282;29;20048;-82
2022/06/04 13:17:53;;;;;;;4.05;2.67;;;23.30;90.10;;;;;;4893867;29;20044;-83
2022/06/04 13:20:43;;;;;;;4.13;2.50;;;23.20;89.60;;;;;;4874410;29;20135;-83
2022/06/04 13:23:23;;;;;;;4.53;2.50;;;23.20;89.50;;;;;;4880804;29;20051;-83
2022/06/04 13:26:01;;;;;;;4.97;2.78;;;23.30;88.80;;;;;;4899245;29;20045;-82
2022/06/04 13:28:34;;;;;;;5.35;2.75;;;23.30;88.20;;;;;;4881842;29;20048;-83
2022/06/04 13:31:01;;;;;;;3.88;2.33;;;23.50;89.40;;;;;;4902772;29;20063;-83
2022/06/04 13:33:28;;;;;;;3.20;2.40;;;23.90;89.60;;;;;;4894093;29;20108;-83